Time;durP1;ratioP1;P1;durP2;ratioP2;P2;SDS_P1;SDS_P2;PMS_P1;PMS_P2;Temp;Humidity;BMP_temperature;BMP_pressure;BME280_temperature;BME280_humidity;BME280_pressure;Samples;Min_cycle;Max_cycle;Signal;HPM_P1;HPM_P2
2021/05/04 00:00:13;;;;;;;1.57;1.40;;;;;;;18.66;53.61;99480.28;1791525;79;21147;-68
2021/05/04 00:02:41;;;;;;;1.85;1.40;;;;;;;18.65;53.58;99482.66;1792285;79;21356;-69
2021/05/04 00:05:10;;;;;;;1.22;1.12;;;;;;;18.65;53.56;99480.51;1780924;79;21140;-68
2021/05/04 00:07:38;;;;;;;2.30;1.60;;;;;;;18.64;53.62;99479.70;1799878;79;21151;-69
2021/05/04 00:10:07;;;;;;;1.17;1.07;;;;;;;18.63;53.60;99488.80;1784161;79;21157;-68
2021/05/04 00:12:35;;;;;;;1.60;1.50;;;;;;;18.60;53.58;99477.16;1781099;79;21618;-68
2021/05/04 00:15:07;;;;;;;1.37;1.27;;;;;;;18.60;53.58;99479.86;1803532;79;21172;-69
2021/05/04 00:17:34;;;;;;;1.45;1.35;;;;;;;18.58;53.55;99481.95;1796257;79;21182;-68
2021/05/04 00:20:04;;;;;;;1.42;1.32;;;;;;;18.58;53.54;99485.14;1790460;79;21214;-69
2021/05/04 00:22:32;;;;;;;1.50;1.40;;;;;;;18.57;53.51;99487.55;1813092;79;21151;-69
2021/05/04 00:24:59;;;;;;;1.50;1.37;;;;;;;18.55;53.51;99487.77;1790544;79;21137;-69
2021/05/04 00:27:27;;;;;;;1.50;1.40;;;;;;;18.54;53.53;99482.08;1813035;79;21171;-69
2021/05/04 00:29:56;;;;;;;1.40;1.30;;;;;;;18.54;53.52;99483.96;1813008;79;21166;-69
2021/05/04 00:32:25;;;;;;;2.17;1.37;;;;;;;18.51;53.52;99482.55;1790368;79;21127;-69
2021/05/04 00:34:52;;;;;;;1.30;1.20;;;;;;;18.50;53.54;99492.19;1793894;79;21172;-68
2021/05/04 00:37:20;;;;;;;1.57;1.47;;;;;;;18.49;53.55;99492.72;1810202;79;21587;-69
2021/05/04 00:39:47;;;;;;;1.25;1.15;;;;;;;18.48;53.54;99496.44;1814395;79;21359;-69
2021/05/04 00:42:14;;;;;;;1.50;1.40;;;;;;;18.47;53.52;99500.20;1806106;79;21152;-68
2021/05/04 00:44:42;;;;;;;1.42;1.32;;;;;;;18.44;53.52;99497.41;1807495;79;21144;-69
2021/05/04 00:47:10;;;;;;;1.70;1.45;;;;;;;18.43;53.47;99494.44;1778120;79;21143;-68
2021/05/04 00:49:38;;;;;;;1.47;1.37;;;;;;;18.42;53.47;99496.00;1778245;79;21103;-69
2021/05/04 00:52:06;;;;;;;1.72;1.25;;;;;;;18.41;53.48;99503.26;1815989;79;21767;-69
2021/05/04 00:54:33;;;;;;;1.52;1.42;;;;;;;18.40;53.54;99496.75;1783962;80;21639;-69
2021/05/04 00:57:01;;;;;;;1.35;1.25;;;;;;;18.38;53.47;99501.00;1756364;80;21171;-69
2021/05/04 00:59:28;;;;;;;1.50;1.40;;;;;;;18.37;53.48;99504.76;1783964;80;21127;-69
2021/05/04 01:01:56;;;;;;;1.75;1.45;;;;;;;18.35;53.47;99497.44;1798229;78;21163;-68
2021/05/04 01:04:24;;;;;;;1.40;1.30;;;;;;;18.35;53.47;99497.94;1764569;79;21369;-69
2021/05/04 01:06:52;;;;;;;1.65;1.52;;;;;;;18.34;53.47;99503.03;1777468;79;21151;-68
2021/05/04 01:09:20;;;;;;;1.22;1.12;;;;;;;18.32;53.42;99495.19;1773255;79;21413;-69
2021/05/04 01:11:47;;;;;;;1.25;1.20;;;;;;;18.31;53.46;99496.25;1775106;79;21124;-69
2021/05/04 01:14:15;;;;;;;1.75;1.42;;;;;;;18.31;53.46;99495.41;1791669;79;21616;-69
2021/05/04 01:16:46;;;;;;;1.65;1.37;;;;;;;18.30;53.48;99491.09;1787707;79;22644;-69
2021/05/04 01:19:13;;;;;;;1.50;1.40;;;;;;;18.28;53.45;99496.69;1782428;79;21175;-68
2021/05/04 01:21:42;;;;;;;1.65;1.50;;;;;;;18.26;53.45;99488.84;1782511;79;21155;-68
2021/05/04 01:24:10;;;;;;;1.47;1.37;;;;;;;18.26;53.45;99488.84;1780453;79;21147;-69
2021/05/04 01:26:43;;;;;;;1.45;1.35;;;;;;;18.25;53.50;99479.64;1811898;79;21138;-68
2021/05/04 01:29:10;;;;;;;1.60;1.50;;;;;;;18.24;53.43;99485.55;1779461;79;22109;-68
2021/05/04 01:31:40;;;;;;;1.82;1.62;;;;;;;18.23;53.45;99488.46;1793440;79;21174;-67
2021/05/04 01:34:11;;;;;;;1.60;1.50;;;;;;;18.21;53.52;99489.21;1783912;80;21206;-69
2021/05/04 01:36:39;;;;;;;1.47;1.30;;;;;;;18.19;53.47;99487.27;1789396;79;21163;-69
2021/05/04 01:39:08;;;;;;;1.80;1.70;;;;;;;18.18;53.47;99490.49;1783754;80;21174;-68
2021/05/04 01:41:36;;;;;;;1.80;1.70;;;;;;;18.17;53.49;99491.52;1805867;79;21424;-69
2021/05/04 01:44:07;;;;;;;1.77;1.60;;;;;;;18.16;53.46;99493.93;1780591;80;21188;-68
2021/05/04 01:46:38;;;;;;;1.85;1.37;;;;;;;18.14;53.50;99497.36;1781019;80;21157;-68
2021/05/04 01:49:08;;;;;;;1.32;1.22;;;;;;;18.13;53.52;99501.08;1781252;80;21079;-69
2021/05/04 01:51:38;;;;;;;1.80;1.70;;;;;;;18.12;53.48;99508.86;1781173;79;21129;-69
2021/05/04 01:54:06;;;;;;;1.37;1.27;;;;;;;18.10;53.49;99503.39;1779690;80;21357;-69
2021/05/04 01:56:33;;;;;;;1.57;1.47;;;;;;;18.09;53.48;99509.30;1780810;79;21147;-68
2021/05/04 01:59:03;;;;;;;2.42;1.37;;;;;;;18.07;53.49;99501.45;1758661;80;21203;-69
2021/05/04 02:01:30;;;;;;;1.47;1.37;;;;;;;18.06;53.55;99503.86;1797030;79;21418;-69
2021/05/04 02:03:57;;;;;;;1.50;1.40;;;;;;;18.06;53.52;99505.73;1764605;79;21143;-69
2021/05/04 02:06:25;;;;;;;2.08;1.50;;;;;;;18.05;53.51;99501.38;1764528;79;21373;-68
2021/05/04 02:08:52;;;;;;;1.70;1.60;;;;;;;18.03;53.54;99500.78;1785348;79;21194;-69
2021/05/04 02:11:20;;;;;;;1.85;1.60;;;;;;;18.02;53.55;99504.00;1772096;79;21143;-69
2021/05/04 02:13:48;;;;;;;1.40;1.30;;;;;;;18.02;53.53;99508.53;1813231;79;21162;-69
2021/05/04 02:16:16;;;;;;;1.70;1.60;;;;;;;18.00;53.55;99511.47;1781015;80;21137;-69
2021/05/04 02:18:43;;;;;;;1.52;1.40;;;;;;;18.00;53.58;99516.00;1768828;80;21465;-68
2021/05/04 02:21:11;;;;;;;2.05;1.60;;;;;;;17.99;53.56;99519.75;1778898;80;21160;-69
2021/05/04 02:23:38;;;;;;;1.50;1.40;;;;;;;17.97;53.57;99513.78;1780904;79;21143;-69
2021/05/04 02:26:05;;;;;;;1.40;1.25;;;;;;;17.96;53.53;99510.25;1783025;80;21858;-70
2021/05/04 02:28:33;;;;;;;1.57;1.47;;;;;;;17.95;53.59;99513.99;1756287;80;21609;-69
2021/05/04 02:31:01;;;;;;;1.65;1.55;;;;;;;17.96;53.58;99513.46;1784563;80;21480;-69
2021/05/04 02:33:29;;;;;;;2.20;1.70;;;;;;;17.95;53.54;99509.14;1771901;79;21156;-68
2021/05/04 02:35:58;;;;;;;1.50;1.40;;;;;;;17.93;53.65;99503.98;1793879;79;21183;-68
2021/05/04 02:38:25;;;;;;;2.40;1.70;;;;;;;17.93;53.60;99503.17;1758573;80;21127;-69
2021/05/04 02:40:53;;;;;;;2.02;1.70;;;;;;;17.92;53.62;99504.20;1782736;79;21142;-68
2021/05/04 02:43:20;;;;;;;1.82;1.72;;;;;;;17.90;53.62;99502.27;1787522;80;22291;-69
2021/05/04 02:45:48;;;;;;;1.50;1.40;;;;;;;17.90;53.67;99504.95;1783969;79;21619;-70
2021/05/04 02:48:15;;;;;;;2.02;1.70;;;;;;;17.89;53.67;99505.48;1776621;80;21619;-68
2021/05/04 02:50:43;;;;;;;1.55;1.45;;;;;;;17.88;53.68;99511.88;1782295;79;21151;-69
2021/05/04 02:53:12;;;;;;;1.72;1.62;;;;;;;17.87;53.64;99511.06;1774941;80;21171;-68
2021/05/04 02:55:39;;;;;;;1.70;1.50;;;;;;;17.86;53.72;99513.44;1784752;80;22626;-68
2021/05/04 02:58:07;;;;;;;1.72;1.62;;;;;;;17.85;53.70;99518.53;1783945;79;21591;-69
2021/05/04 03:00:35;;;;;;;1.72;1.62;;;;;;;17.84;53.70;99519.56;1787480;80;21175;-69
2021/05/04 03:03:04;;;;;;;2.00;1.52;;;;;;;17.83;53.71;99521.12;1783951;79;21139;-68
2021/05/04 03:05:32;;;;;;;1.65;1.55;;;;;;;17.83;53.78;99518.43;1787523;80;21119;-69
2021/05/04 03:07:59;;;;;;;1.92;1.57;;;;;;;17.82;53.80;99523.48;1806774;79;21368;-68
2021/05/04 03:10:27;;;;;;;1.75;1.65;;;;;;;17.81;53.75;99521.83;1756101;80;21187;-69
2021/05/04 03:12:56;;;;;;;1.85;1.70;;;;;;;17.80;53.75;99522.36;1785123;80;21111;-69
2021/05/04 03:15:25;;;;;;;7.33;1.70;;;;;;;17.79;53.77;99526.11;1783923;79;21159;-69
2021/05/04 03:17:52;;;;;;;1.77;1.60;;;;;;;17.79;53.79;99525.26;1765573;80;21144;-68
2021/05/04 03:20:20;;;;;;;2.02;1.87;;;;;;;17.77;53.80;99524.16;1783918;79;22006;-69
2021/05/04 03:22:48;;;;;;;1.70;1.52;;;;;;;17.77;53.82;99530.88;1762811;80;21151;-69
2021/05/04 03:25:15;;;;;;;2.25;1.60;;;;;;;17.77;53.77;99527.34;1756060;80;21179;-69
2021/05/04 03:27:45;;;;;;;1.72;1.62;;;;;;;17.77;53.79;99532.72;1756449;80;21172;-69
2021/05/04 03:30:14;;;;;;;1.77;1.67;;;;;;;17.74;53.84;99529.97;1778212;79;21175;-68
2021/05/04 03:32:42;;;;;;;1.65;1.45;;;;;;;17.75;53.84;99532.97;1782145;79;22344;-69
2021/05/04 03:35:10;;;;;;;1.72;1.62;;;;;;;17.75;53.82;99534.80;1778259;79;21151;-69
2021/05/04 03:37:38;;;;;;;1.60;1.47;;;;;;;17.74;53.77;99540.70;1778325;79;21163;-69
2021/05/04 03:40:08;;;;;;;1.77;1.65;;;;;;;17.74;53.81;99540.70;1778133;79;21243;-68
2021/05/04 03:42:35;;;;;;;1.90;1.70;;;;;;;17.74;53.82;99542.58;1781452;79;21115;-69
2021/05/04 03:45:06;;;;;;;2.05;1.62;;;;;;;17.74;53.84;99547.42;1755084;80;21367;-69
2021/05/04 03:47:36;;;;;;;1.87;1.77;;;;;;;17.74;53.86;99546.08;1777985;80;21162;-69
2021/05/04 03:50:07;;;;;;;1.70;1.40;;;;;;;17.76;53.84;99547.21;1773693;80;21205;-69
2021/05/04 03:52:34;;;;;;;1.98;1.87;;;;;;;17.76;53.93;99546.69;1783293;80;22114;-69
2021/05/04 03:55:03;;;;;;;1.82;1.72;;;;;;;17.76;53.86;99552.05;1787487;80;21126;-69
2021/05/04 03:57:30;;;;;;;1.70;1.60;;;;;;;17.78;53.84;99558.03;1779716;79;21412;-69
2021/05/04 03:59:58;;;;;;;1.70;1.60;;;;;;;17.80;53.87;99562.66;1764113;80;21176;-69
2021/05/04 04:02:26;;;;;;;2.15;1.80;;;;;;;17.81;53.77;99556.76;1784285;79;21103;-69
2021/05/04 04:04:54;;;;;;;2.00;1.80;;;;;;;17.82;53.79;99548.48;1784044;80;21126;-69
2021/05/04 04:07:21;;;;;;;2.33;1.62;;;;;;;17.84;53.75;99559.86;1768004;80;21166;-69
2021/05/04 04:09:49;;;;;;;2.83;2.55;;;;;;;17.87;53.73;99562.12;1788011;79;21372;-69
2021/05/04 04:12:16;;;;;;;2.10;1.90;;;;;;;17.89;53.64;99564.59;1782927;79;21662;-69
2021/05/04 04:14:44;;;;;;;2.35;1.85;;;;;;;17.92;53.61;99564.14;1786882;79;21334;-68
2021/05/04 04:17:12;;;;;;;2.35;2.05;;;;;;;17.93;53.59;99567.14;1769728;79;21158;-69
2021/05/04 04:21:31;;;;;;;3.00;1.95;;;;;;;18.01;53.52;99550.73;1880524;75;28769;-69
2021/05/04 04:23:59;;;;;;;2.30;2.10;;;;;;;17.94;53.58;99551.30;1843716;77;21115;-70
2021/05/04 04:26:26;;;;;;;2.27;2.08;;;;;;;17.98;53.52;99561.09;1849860;77;21371;-68
2021/05/04 04:28:57;;;;;;;2.30;2.10;;;;;;;18.01;53.49;99557.45;1855998;77;21119;-67
2021/05/04 04:31:26;;;;;;;2.17;1.95;;;;;;;18.02;53.45;99564.48;1805133;78;21199;-70
2021/05/04 04:33:54;;;;;;;2.92;2.10;;;;;;;18.03;53.39;99558.58;1781290;80;21147;-68
2021/05/04 04:36:21;;;;;;;3.87;2.00;;;;;;;18.05;53.43;99564.55;1773922;79;21591;-69
2021/05/04 04:38:48;;;;;;;1.98;1.77;;;;;;;18.06;53.36;99563.52;1795175;79;21579;-69
2021/05/04 04:41:20;;;;;;;1.90;1.70;;;;;;;18.07;53.33;99561.12;1802484;78;21207;-68
2021/05/04 04:43:48;;;;;;;3.30;2.22;;;;;;;18.07;53.28;99564.62;1768164;80;21118;-69
2021/05/04 04:46:15;;;;;;;2.62;2.05;;;;;;;18.09;53.28;99567.09;1793968;78;21194;-69
2021/05/04 04:48:42;;;;;;;2.08;1.87;;;;;;;18.10;53.31;99564.72;1810005;78;21163;-68
2021/05/04 04:51:11;;;;;;;2.40;2.20;;;;;;;18.10;53.20;99563.88;1758389;78;21375;-68
2021/05/04 04:53:38;;;;;;;1.92;1.80;;;;;;;18.11;53.20;99565.00;1791711;79;21369;-69
2021/05/04 04:56:06;;;;;;;2.85;2.22;;;;;;;18.13;53.17;99563.44;1820535;78;21095;-69
2021/05/04 04:58:33;;;;;;;2.35;1.90;;;;;;;18.14;53.18;99573.98;1820015;78;21177;-69
2021/05/04 05:01:00;;;;;;;2.37;2.17;;;;;;;18.14;53.16;99569.95;1780264;79;21184;-70
2021/05/04 05:03:27;;;;;;;2.58;2.22;;;;;;;18.16;53.13;99569.73;1779300;80;21383;-68
2021/05/04 05:05:55;;;;;;;2.35;2.15;;;;;;;18.18;53.11;99573.02;1792599;79;21674;-68
2021/05/04 05:08:23;;;;;;;2.60;2.10;;;;;;;18.19;53.14;99584.05;1789876;79;21167;-69
2021/05/04 05:10:50;;;;;;;2.20;2.00;;;;;;;18.21;53.09;99583.31;1790795;80;21171;-68
2021/05/04 05:13:18;;;;;;;2.40;2.15;;;;;;;18.21;53.04;99577.94;1807611;78;21100;-68
2021/05/04 05:15:45;;;;;;;2.20;2.00;;;;;;;18.23;53.04;99584.75;1783419;80;22889;-68
2021/05/04 05:18:12;;;;;;;2.20;2.00;;;;;;;18.23;53.06;99580.72;1786117;80;21643;-69
2021/05/04 05:20:40;;;;;;;2.52;2.25;;;;;;;18.24;53.00;99583.69;1817035;78;22010;-68
2021/05/04 05:23:07;;;;;;;2.10;1.95;;;;;;;18.25;52.98;99584.01;1857008;77;21091;-69
2021/05/04 05:25:35;;;;;;;2.15;2.00;;;;;;;18.27;52.97;99588.64;1857035;77;21182;-69
2021/05/04 05:28:04;;;;;;;1.92;1.75;;;;;;;18.28;52.97;99587.58;1820818;77;21631;-69
2021/05/04 05:30:33;;;;;;;2.62;2.15;;;;;;;18.30;52.85;99597.30;1802653;77;21107;-69
2021/05/04 05:33:00;;;;;;;2.15;1.95;;;;;;;18.32;52.88;99596.56;1856346;77;21119;-69
2021/05/04 05:35:29;;;;;;;2.67;2.40;;;;;;;18.34;52.75;99594.47;1854237;77;21106;-69
2021/05/04 05:37:57;;;;;;;2.87;2.40;;;;;;;18.34;52.68;99595.28;1786844;79;21203;-69
2021/05/04 05:40:26;;;;;;;2.33;2.12;;;;;;;18.36;52.60;99592.38;1856355;77;21274;-68
2021/05/04 05:42:53;;;;;;;2.30;2.08;;;;;;;18.35;52.59;99588.87;1828285;77;21143;-69
2021/05/04 05:45:21;;;;;;;2.08;1.90;;;;;;;18.37;52.59;99592.16;1782501;79;21164;-69
2021/05/04 05:47:48;;;;;;;2.10;1.90;;;;;;;18.39;52.55;99586.03;1815912;79;21179;-68
2021/05/04 05:50:17;;;;;;;2.25;2.00;;;;;;;18.41;52.55;99589.85;1849927;77;21166;-69
2021/05/04 05:52:44;;;;;;;2.20;2.00;;;;;;;18.42;52.56;99586.91;1844968;77;21347;-68
2021/05/04 05:55:12;;;;;;;2.62;2.42;;;;;;;18.45;52.50;99587.02;1856322;77;21111;-68
2021/05/04 05:57:40;;;;;;;2.15;2.00;;;;;;;18.47;52.44;99591.64;1832600;77;21127;-69
2021/05/04 06:00:09;;;;;;;2.00;1.90;;;;;;;18.50;52.38;99594.39;1856352;77;21190;-69
2021/05/04 06:02:38;;;;;;;2.42;2.22;;;;;;;18.52;52.39;99596.34;1848248;77;21147;-69
2021/05/04 06:05:07;;;;;;;2.33;2.12;;;;;;;18.53;52.34;99593.44;1813646;77;21368;-70
2021/05/04 06:07:34;;;;;;;2.10;1.90;;;;;;;18.54;52.29;99592.37;1776541;79;21184;-68
2021/05/04 06:10:03;;;;;;;2.62;2.42;;;;;;;18.57;52.25;99588.43;1783781;79;21571;-69
2021/05/04 06:12:32;;;;;;;2.58;2.27;;;;;;;18.58;52.22;99596.28;1777669;80;21116;-69
2021/05/04 06:14:59;;;;;;;1.90;1.70;;;;;;;18.61;52.17;99593.12;1783808;80;21118;-70
2021/05/04 06:17:27;;;;;;;2.47;2.20;;;;;;;18.63;52.15;99586.19;1827060;77;21323;-70
2021/05/04 06:19:55;;;;;;;2.60;2.20;;;;;;;18.65;52.10;99595.66;1753892;79;21204;-69
2021/05/04 06:22:22;;;;;;;2.52;2.27;;;;;;;18.67;52.04;99592.22;1763741;79;21163;-70
2021/05/04 06:24:50;;;;;;;2.37;2.10;;;;;;;18.69;51.98;99589.31;1772272;79;21207;-69
2021/05/04 06:27:17;;;;;;;2.20;2.00;;;;;;;18.73;51.94;99597.77;1832535;77;21091;-69
2021/05/04 06:29:46;;;;;;;2.22;2.02;;;;;;;18.76;51.92;99599.48;1819638;77;21421;-69
2021/05/04 06:32:15;;;;;;;2.02;1.82;;;;;;;18.78;51.86;99594.70;1814686;77;21493;-69
2021/05/04 06:34:43;;;;;;;2.30;1.82;;;;;;;18.81;51.83;99601.02;1813072;77;21111;-69
2021/05/04 06:37:11;;;;;;;2.33;2.10;;;;;;;18.84;51.83;99595.70;1816536;77;21144;-69
2021/05/04 06:39:39;;;;;;;2.95;2.20;;;;;;;18.88;51.76;99589.34;1823985;77;21139;-69
2021/05/04 06:42:06;;;;;;;2.65;2.42;;;;;;;18.90;51.79;99587.25;1808359;77;21374;-69
2021/05/04 06:44:34;;;;;;;2.55;2.27;;;;;;;18.94;51.76;99589.78;1807654;77;21143;-69
2021/05/04 06:47:03;;;;;;;2.02;1.82;;;;;;;18.96;51.64;99584.98;1823156;77;21115;-68
2021/05/04 06:49:31;;;;;;;2.33;2.12;;;;;;;18.99;51.59;99589.94;1828692;77;21595;-70
2021/05/04 06:51:58;;;;;;;2.60;2.22;;;;;;;19.01;51.56;99591.88;1821345;77;22118;-69
2021/05/04 06:54:25;;;;;;;2.85;2.40;;;;;;;19.02;51.48;99593.50;1814698;77;22826;-69
2021/05/04 06:56:53;;;;;;;2.05;1.85;;;;;;;19.04;51.49;99595.44;1814732;77;21166;-69
2021/05/04 06:59:20;;;;;;;2.30;2.08;;;;;;;19.07;51.47;99604.95;1800868;77;21599;-68
2021/05/04 07:01:48;;;;;;;2.20;2.00;;;;;;;19.09;51.44;99597.47;1832681;77;21119;-69
2021/05/04 07:04:16;;;;;;;2.17;1.98;;;;;;;19.10;51.37;99609.33;1842920;77;21167;-69
2021/05/04 07:06:43;;;;;;;2.25;2.05;;;;;;;19.12;51.30;99613.96;1814720;77;21422;-69
2021/05/04 07:09:11;;;;;;;2.02;1.85;;;;;;;19.14;51.34;99617.78;1840653;77;21111;-69
2021/05/04 07:11:39;;;;;;;2.10;1.90;;;;;;;19.16;51.26;99621.06;1834948;77;21150;-69
2021/05/04 07:14:06;;;;;;;2.15;1.95;;;;;;;19.17;51.25;99621.38;1814697;77;21131;-70
2021/05/04 07:16:35;;;;;;;2.60;2.15;;;;;;;19.17;51.21;99627.58;1814705;77;21151;-68
2021/05/04 07:19:03;;;;;;;3.02;1.87;;;;;;;19.18;51.13;99621.16;1814656;77;21252;-70
2021/05/04 07:21:32;;;;;;;2.33;2.12;;;;;;;19.20;51.13;99619.56;1803142;77;21207;-69
2021/05/04 07:24:00;;;;;;;2.00;1.80;;;;;;;19.22;51.18;99634.98;1812991;79;21131;-70
2021/05/04 07:26:28;;;;;;;2.40;2.20;;;;;;;19.23;51.15;99629.89;1810320;79;21132;-69
2021/05/04 07:28:56;;;;;;;2.40;2.10;;;;;;;19.26;51.10;99640.22;1787259;79;21151;-69
2021/05/04 07:31:24;;;;;;;2.25;2.05;;;;;;;19.28;51.17;99631.88;1806233;79;21381;-68
2021/05/04 07:33:52;;;;;;;2.47;1.90;;;;;;;19.30;51.12;99642.75;1743859;81;21117;-68
2021/05/04 07:36:21;;;;;;;2.33;2.12;;;;;;;19.31;51.12;99636.30;1743870;82;21163;-69
2021/05/04 07:38:48;;;;;;;2.37;2.17;;;;;;;19.34;51.09;99631.00;1741707;82;21184;-69
2021/05/04 07:41:16;;;;;;;2.65;2.27;;;;;;;19.35;51.11;99635.31;1720145;82;21612;-69
2021/05/04 07:43:44;;;;;;;3.45;2.15;;;;;;;19.36;51.06;99641.83;1705149;83;21381;-69
2021/05/04 07:46:11;;;;;;;2.42;2.12;;;;;;;19.38;51.04;99626.80;1743750;81;21183;-69
2021/05/04 07:48:39;;;;;;;2.00;1.82;;;;;;;19.41;51.03;99623.62;1738183;81;21220;-68
2021/05/04 07:51:08;;;;;;;1.95;1.80;;;;;;;19.43;51.04;99634.98;1742723;82;21187;-68
2021/05/04 07:53:35;;;;;;;2.40;2.20;;;;;;;19.44;51.05;99634.77;1739856;81;21663;-69
2021/05/04 07:56:04;;;;;;;2.47;2.17;;;;;;;19.47;51.00;99636.70;1777525;80;21285;-69
2021/05/04 07:58:31;;;;;;;2.62;2.02;;;;;;;19.50;51.07;99638.95;1757500;80;21159;-69
2021/05/04 08:00:58;;;;;;;2.25;2.05;;;;;;;19.51;51.04;99647.31;1748487;80;21171;-69
2021/05/04 08:03:27;;;;;;;2.65;2.00;;;;;;;19.54;51.01;99644.98;1743843;82;21179;-68
2021/05/04 08:05:55;;;;;;;2.22;2.00;;;;;;;19.56;51.08;99640.73;1738979;82;21219;-69
2021/05/04 08:08:22;;;;;;;2.22;2.00;;;;;;;19.58;51.06;99653.44;1709353;82;21452;-68
2021/05/04 08:10:50;;;;;;;2.10;2.00;;;;;;;19.59;51.07;99652.41;1740138;82;21175;-68
2021/05/04 08:13:20;;;;;;;2.08;1.90;;;;;;;19.62;51.10;99661.36;1741541;81;21144;-69
2021/05/04 08:15:51;;;;;;;2.72;2.27;;;;;;;19.63;51.06;99664.36;1753956;80;21175;-69
2021/05/04 08:18:19;;;;;;;2.00;1.70;;;;;;;19.63;51.01;99657.09;1777548;80;21170;-69
2021/05/04 08:20:49;;;;;;;2.20;2.00;;;;;;;19.65;50.98;99651.48;1783068;78;21376;-71
2021/05/04 08:23:17;;;;;;;3.08;2.15;;;;;;;19.67;50.94;99650.72;1802352;79;21187;-70
2021/05/04 08:25:45;;;;;;;1.75;1.65;;;;;;;19.70;50.99;99651.63;1755382;80;21152;-69
2021/05/04 08:28:12;;;;;;;2.12;1.92;;;;;;;19.73;51.12;99655.75;1794592;79;21619;-68
2021/05/04 08:30:40;;;;;;;2.30;2.10;;;;;;;19.76;51.16;99650.73;1784035;79;21541;-69
2021/05/04 08:33:07;;;;;;;1.87;1.75;;;;;;;19.81;51.15;99657.58;1802722;79;21254;-69
2021/05/04 08:35:34;;;;;;;2.08;1.77;;;;;;;19.84;50.98;99648.23;1788542;79;21191;-69
2021/05/04 08:38:02;;;;;;;2.10;1.90;;;;;;;19.88;50.87;99655.33;1804745;79;21117;-69
2021/05/04 08:40:29;;;;;;;3.27;2.12;;;;;;;19.90;50.82;99658.61;1775248;80;21168;-69
2021/05/04 08:42:57;;;;;;;2.08;1.87;;;;;;;19.90;50.93;99659.42;1793478;79;21148;-69
2021/05/04 08:45:24;;;;;;;2.17;1.98;;;;;;;19.91;50.98;99667.80;1770140;79;21389;-69
2021/05/04 08:47:54;;;;;;;1.98;1.77;;;;;;;19.92;50.94;99670.80;1756040;80;21135;-70
2021/05/04 08:50:21;;;;;;;2.30;2.10;;;;;;;19.94;50.80;99661.14;1807197;79;21115;-69
2021/05/04 08:52:51;;;;;;;2.10;1.90;;;;;;;19.95;50.81;99667.66;1807152;79;21182;-70
2021/05/04 08:55:19;;;;;;;2.45;2.25;;;;;;;19.99;50.62;99669.33;1775364;79;21163;-68
2021/05/04 08:57:46;;;;;;;1.95;1.85;;;;;;;20.01;50.54;99654.59;1775407;79;21372;-69
2021/05/04 09:00:15;;;;;;;2.20;2.00;;;;;;;20.03;50.47;99662.45;1773634;80;21615;-69
2021/05/04 09:03:10;;;;;;;2.10;1.90;;;;;;;20.04;50.38;99663.55;1770657;79;21640;-69
2021/05/04 09:05:47;;;;;;;2.00;1.80;;;;;;;20.07;50.49;99667.67;1775340;79;21151;-69
2021/05/04 09:11:32;;;;;;;2.20;2.00;;;;;;;20.13;50.36;99663.23;1828618;76;22157;-69
2021/05/04 09:14:04;;;;;;;2.08;1.87;;;;;;;20.10;50.55;99662.33;1846866;77;21007;-69
2021/05/04 09:19:07;;;;;;;2.10;1.90;;;;;;;20.11;50.18;99665.30;1847623;77;21125;-69
2021/05/04 09:21:39;;;;;;;1.87;1.77;;;;;;;20.12;50.07;99666.42;1845910;77;21033;-69
2021/05/04 09:24:33;;;;;;;2.17;1.98;;;;;;;20.12;50.15;99667.77;1848763;77;21152;-70
2021/05/04 09:27:07;;;;;;;2.10;1.90;;;;;;;20.12;50.22;99676.40;1849306;77;21109;-69
2021/05/04 09:29:52;;;;;;;1.95;1.75;;;;;;;20.08;50.16;99657.16;1848993;77;21436;-70
2021/05/04 09:32:27;;;;;;;2.98;1.62;;;;;;;20.07;50.21;99663.63;1848701;77;21136;-69
2021/05/04 09:35:02;;;;;;;1.80;1.70;;;;;;;20.05;50.21;99676.52;1848900;77;21234;-69
2021/05/04 09:37:36;;;;;;;2.20;2.00;;;;;;;20.03;50.24;99670.00;1831326;77;21180;-69
2021/05/04 09:40:27;;;;;;;2.00;1.80;;;;;;;20.00;50.14;99671.80;1843307;77;21136;-70
2021/05/04 09:43:03;;;;;;;2.22;2.02;;;;;;;19.98;50.24;99666.36;1848133;77;22130;-69
2021/05/04 09:45:32;;;;;;;2.12;2.00;;;;;;;19.96;50.33;99663.89;1848941;77;21145;-68
2021/05/04 09:48:21;;;;;;;2.30;2.10;;;;;;;19.98;50.73;99671.75;1827006;77;21561;-69
2021/05/04 09:51:02;;;;;;;2.15;1.95;;;;;;;20.02;50.81;99662.14;1828720;77;21125;-69
2021/05/04 09:56:08;;;;;;;1.90;1.80;;;;;;;20.16;50.34;99658.16;1825655;77;21428;-69
2021/05/04 09:58:45;;;;;;;2.08;1.95;;;;;;;20.22;50.33;99659.95;1848966;77;21604;-69
2021/05/04 10:01:17;;;;;;;1.80;1.70;;;;;;;20.30;50.38;99656.59;1847253;77;21113;-69
2021/05/04 10:03:47;;;;;;;2.15;1.95;;;;;;;20.37;50.42;99650.56;1849054;77;21160;-69
2021/05/04 10:06:16;;;;;;;2.05;1.80;;;;;;;20.46;50.52;99641.60;1840128;77;21100;-69
2021/05/04 10:08:46;;;;;;;2.22;2.00;;;;;;;20.55;50.78;99645.56;1835656;77;21358;-69
2021/05/04 10:11:17;;;;;;;2.08;1.98;;;;;;;20.63;50.91;99635.81;1804188;77;21578;-70
2021/05/04 10:13:44;;;;;;;2.40;1.90;;;;;;;20.71;50.44;99635.44;1782578;79;21141;-70
2021/05/04 10:16:12;;;;;;;2.15;1.95;;;;;;;20.79;50.34;99639.65;1777417;79;21118;-69
2021/05/04 10:18:40;;;;;;;1.80;1.70;;;;;;;20.87;50.37;99639.27;1803894;79;21558;-69
2021/05/04 10:21:08;;;;;;;2.08;1.87;;;;;;;20.94;51.04;99640.50;1803745;79;21816;-69
2021/05/04 10:23:37;;;;;;;2.00;1.77;;;;;;;21.00;50.74;99633.61;1782344;78;21160;-69
2021/05/04 10:26:14;;;;;;;2.17;1.98;;;;;;;21.09;51.45;99639.44;1778031;78;21151;-68
2021/05/04 10:28:37;;;;;;;1.98;1.77;;;;;;;21.17;51.60;99636.38;1769523;79;21193;-68
2021/05/04 10:31:08;;;;;;;1.90;1.70;;;;;;;21.27;51.32;99637.64;1804042;78;21117;-69
2021/05/04 10:33:42;;;;;;;1.82;1.72;;;;;;;21.34;50.81;99622.09;1788480;78;22115;-69
2021/05/04 10:36:34;;;;;;;1.87;1.77;;;;;;;21.42;51.00;99643.31;1794917;77;21140;-68
2021/05/04 10:39:03;;;;;;;2.10;1.90;;;;;;;21.49;51.05;99646.72;1772967;78;21101;-69
2021/05/04 10:41:30;;;;;;;2.00;1.80;;;;;;;21.56;50.82;99649.29;1776516;78;21187;-69
2021/05/04 10:44:04;;;;;;;1.70;1.60;;;;;;;21.61;50.84;99641.25;1733476;78;21554;-69
2021/05/04 10:46:41;;;;;;;2.02;1.90;;;;;;;21.67;51.80;99640.81;1821259;78;21374;-69
2021/05/04 10:49:12;;;;;;;1.57;1.47;;;;;;;21.72;51.71;99644.43;1775941;78;21682;-68
2021/05/04 10:51:50;;;;;;;1.90;1.80;;;;;;;21.77;51.64;99632.36;1764657;80;21154;-68
2021/05/04 10:54:22;;;;;;;1.80;1.70;;;;;;;21.83;51.77;99631.08;1817258;78;21160;-69
2021/05/04 10:56:59;;;;;;;1.77;1.67;;;;;;;21.85;52.20;99625.73;1819109;77;21542;-68
2021/05/04 10:59:44;;;;;;;2.02;1.87;;;;;;;21.88;51.17;99633.88;1765617;78;21391;-69
2021/05/04 11:02:23;;;;;;;2.05;1.50;;;;;;;21.88;50.50;99631.17;1770878;78;21183;-69
2021/05/04 11:04:52;;;;;;;1.75;1.65;;;;;;;21.86;50.33;99632.77;1789386;78;22131;-70
2021/05/04 11:07:53;;;;;;;1.52;1.42;;;;;;;21.85;50.31;99633.03;1776229;78;21149;-69
2021/05/04 11:10:20;;;;;;;1.72;1.62;;;;;;;21.86;50.38;99640.88;1819330;77;21102;-69
2021/05/04 11:12:48;;;;;;;1.90;1.80;;;;;;;21.87;51.07;99633.06;1818603;77;21424;-69
2021/05/04 11:15:25;;;;;;;1.82;1.72;;;;;;;21.90;51.50;99636.61;1809810;76;21149;-68
2021/05/04 11:17:53;;;;;;;1.62;1.52;;;;;;;21.94;51.51;99639.65;1826688;76;21156;-69
2021/05/04 11:20:38;;;;;;;1.87;1.77;;;;;;;21.96;51.20;99630.76;1818930;78;21129;-70
2021/05/04 11:23:08;;;;;;;1.82;1.70;;;;;;;21.98;50.83;99638.09;1829582;76;21113;-69
2021/05/04 11:25:40;;;;;;;1.98;1.60;;;;;;;21.96;50.46;99634.81;1803375;76;21355;-69
2021/05/04 11:28:08;;;;;;;1.80;1.70;;;;;;;21.94;50.27;99620.21;1832435;77;21141;-68
2021/05/04 11:30:40;;;;;;;1.60;1.50;;;;;;;21.92;50.19;99631.80;1819938;76;21158;-67
2021/05/04 11:33:30;;;;;;;1.65;1.55;;;;;;;21.93;50.48;99633.43;1826196;76;21211;-68
2021/05/04 11:35:59;;;;;;;1.60;1.50;;;;;;;21.96;50.90;99636.17;1823085;78;21109;-69
2021/05/04 11:38:27;;;;;;;1.80;1.70;;;;;;;22.01;51.10;99628.69;1813003;76;21312;-69
2021/05/04 11:40:54;;;;;;;1.70;1.60;;;;;;;22.09;51.33;99620.96;1836417;78;21418;-68
2021/05/04 11:43:23;;;;;;;1.75;1.65;;;;;;;22.17;50.49;99627.33;1836378;78;21092;-62
2021/05/04 11:45:51;;;;;;;1.95;1.77;;;;;;;22.27;49.76;99602.34;1820777;76;21162;-68
2021/05/04 11:48:18;;;;;;;2.17;1.70;;;;;;;22.38;48.80;99611.41;1805617;77;21146;-69
2021/05/04 11:50:50;;;;;;;2.20;2.00;;;;;;;22.49;49.50;99602.38;1823127;78;22386;-71
2021/05/04 11:53:18;;;;;;;3.47;1.80;;;;;;;22.58;50.25;99600.88;1820933;78;21155;-70